createdAt,value
2019-01-12T00:01:49.558Z,84.04
2019-01-12T00:04:20.778Z,83.76
2019-01-12T00:06:51.932Z,83.66
2019-01-12T00:09:23.111Z,83.69
2019-01-12T00:11:54.190Z,84.06
2019-01-12T00:14:25.214Z,82.84
2019-01-12T00:16:56.371Z,82.83
2019-01-12T00:19:27.388Z,82.61
2019-01-12T00:21:58.473Z,82.53
2019-01-12T00:24:31.696Z,82.41
2019-01-12T00:27:02.412Z,82.96
2019-01-12T00:29:33.590Z,82.42
2019-01-12T00:32:04.749Z,82.12
2019-01-12T00:34:35.952Z,82.56
2019-01-12T00:37:07.137Z,82.79
2019-01-12T00:39:38.198Z,82.83
2019-01-12T00:42:09.283Z,82.68
2019-01-12T00:44:40.371Z,82.73
2019-01-12T00:47:11.446Z,82.88
2019-01-12T00:49:42.499Z,82.86
2019-01-12T00:52:13.716Z,82.87
2019-01-12T00:54:44.923Z,82.79
2019-01-12T00:57:15.997Z,82.83
2019-01-12T00:59:47.097Z,83.22
2019-01-12T01:02:18.235Z,83.41
2019-01-12T01:04:49.406Z,83.54
2019-01-12T01:07:20.570Z,83.33
2019-01-12T01:09:51.736Z,83.29
2019-01-12T01:12:22.884Z,83.54
2019-01-12T01:14:53.963Z,83.64
2019-01-12T01:17:25.030Z,83.21
2019-01-12T01:19:56.363Z,83.35
2019-01-12T01:22:27.590Z,83.13
2019-01-12T01:24:58.940Z,83.08
2019-01-12T01:27:30.022Z,82.94
2019-01-12T01:30:01.169Z,82.80
2019-01-12T01:32:32.254Z,82.83
2019-01-12T01:35:03.423Z,82.85
2019-01-12T01:37:34.721Z,83.04
2019-01-12T01:40:07.634Z,82.70
2019-01-12T01:42:38.778Z,82.79
2019-01-12T01:45:10.736Z,83.10
2019-01-12T01:47:41.876Z,83.02
2019-01-12T01:50:14.044Z,82.83
2019-01-12T01:52:45.260Z,82.67
2019-01-12T01:55:16.362Z,82.64
2019-01-12T01:57:47.446Z,82.44
2019-01-12T02:00:19.424Z,82.53
2019-01-12T02:02:50.551Z,82.15
2019-01-12T02:05:21.806Z,82.19
2019-01-12T02:07:53.008Z,81.52
2019-01-12T02:10:24.217Z,81.48
2019-01-12T02:12:55.682Z,81.49
2019-01-12T02:15:26.785Z,81.22
2019-01-12T02:17:57.769Z,81.28
2019-01-12T02:20:28.965Z,81.10
2019-01-12T02:22:59.958Z,81.09
2019-01-12T02:25:31.060Z,81.05
2019-01-12T02:28:02.188Z,80.85
2019-01-12T02:30:33.439Z,80.91
2019-01-12T02:33:04.524Z,80.83
2019-01-12T02:35:35.670Z,80.81
2019-01-12T02:38:06.837Z,80.82
2019-01-12T02:40:38.032Z,80.78
2019-01-12T02:43:09.145Z,80.71
2019-01-12T02:45:40.158Z,80.64
2019-01-12T02:48:11.301Z,80.31
2019-01-12T02:50:42.333Z,80.21
2019-01-12T02:53:13.412Z,80.37
2019-01-12T02:55:44.612Z,80.38
2019-01-12T02:58:15.742Z,80.54
2019-01-12T03:00:46.885Z,80.89
2019-01-12T03:03:17.959Z,80.28
2019-01-12T03:05:49.131Z,80.18
2019-01-12T03:08:20.374Z,80.42
2019-01-12T03:10:51.637Z,80.56
2019-01-12T03:13:22.781Z,80.66
2019-01-12T03:15:53.949Z,80.45
2019-01-12T03:18:25.085Z,80.20
2019-01-12T03:20:56.252Z,80.01
2019-01-12T03:23:27.753Z,80.23
2019-01-12T03:25:58.856Z,80.37
2019-01-12T03:28:29.849Z,80.43
2019-01-12T03:31:00.868Z,80.18
2019-01-12T03:33:31.937Z,79.76
2019-01-12T03:36:03.163Z,79.93
2019-01-12T03:38:34.329Z,80.22
2019-01-12T03:41:05.581Z,80.41
2019-01-12T03:43:36.683Z,80.47
2019-01-12T03:46:07.838Z,80.53
2019-01-12T03:48:38.976Z,80.22
2019-01-12T03:51:10.156Z,80.10
2019-01-12T03:53:41.294Z,79.91
2019-01-12T03:56:12.543Z,80.22
2019-01-12T03:58:43.685Z,79.93
2019-01-12T04:01:14.885Z,79.96
2019-01-12T04:03:45.969Z,79.94
2019-01-12T04:06:17.181Z,80.05
2019-01-12T04:08:48.318Z,79.78
2019-01-12T04:11:20.536Z,79.76
2019-01-12T04:13:51.518Z,79.77
2019-01-12T04:16:22.792Z,79.93
2019-01-12T04:18:53.776Z,79.82
2019-01-12T04:21:24.836Z,79.68
2019-01-12T04:23:55.792Z,79.79
2019-01-12T04:26:26.942Z,79.81
2019-01-12T04:28:59.025Z,79.87
2019-01-12T04:31:30.103Z,79.62
2019-01-12T04:34:01.231Z,79.59
2019-01-12T04:36:33.482Z,79.57
2019-01-12T04:39:07.512Z,79.50
2019-01-12T04:41:38.675Z,79.83
2019-01-12T04:44:09.811Z,79.93
2019-01-12T04:46:40.938Z,79.69
2019-01-12T04:49:12.027Z,79.87
2019-01-12T04:51:43.144Z,79.71
2019-01-12T04:54:14.211Z,79.68
2019-01-12T04:56:45.309Z,79.37
2019-01-12T04:59:16.462Z,79.49
2019-01-12T05:01:47.576Z,79.61
2019-01-12T05:04:18.759Z,79.36
2019-01-12T05:06:49.954Z,79.43
2019-01-12T05:09:21.037Z,79.32
2019-01-12T05:11:52.216Z,79.48
2019-01-12T05:14:23.378Z,79.77
2019-01-12T05:16:54.484Z,79.90
2019-01-12T05:19:25.608Z,80.09
2019-01-12T05:21:56.629Z,80.71
2019-01-12T05:24:27.748Z,80.17
2019-01-12T05:26:58.773Z,80.41
2019-01-12T05:29:30.024Z,80.71
2019-01-12T05:32:01.088Z,80.87
2019-01-12T05:34:32.156Z,80.93
2019-01-12T05:37:03.335Z,80.85
2019-01-12T05:39:34.479Z,80.97
2019-01-12T05:42:05.655Z,81.11
2019-01-12T05:44:37.422Z,81.36
2019-01-12T05:47:08.593Z,81.39
2019-01-12T05:49:39.711Z,81.67
2019-01-12T05:52:10.780Z,81.68
2019-01-12T05:54:41.775Z,81.96
2019-01-12T05:57:12.994Z,82.28
2019-01-12T05:59:43.984Z,82.55
2019-01-12T06:02:15.132Z,82.65
2019-01-12T06:04:46.223Z,82.68
2019-01-12T06:07:17.313Z,82.97
2019-01-12T06:09:48.382Z,83.25
2019-01-12T06:12:19.434Z,83.25
2019-01-12T06:14:50.500Z,83.14
2019-01-12T06:17:21.570Z,83.14
2019-01-12T06:19:52.643Z,83.29
2019-01-12T06:22:23.783Z,83.59
2019-01-12T06:24:54.757Z,83.07
2019-01-12T06:27:25.762Z,82.74
2019-01-12T06:29:56.936Z,82.69
2019-01-12T06:32:28.312Z,82.55
2019-01-12T06:34:59.508Z,82.49
2019-01-12T06:37:30.819Z,81.92
2019-01-12T06:40:01.874Z,82.04
2019-01-12T06:42:33.235Z,81.88
2019-01-12T06:45:05.172Z,81.95
2019-01-12T06:47:36.417Z,81.80
2019-01-12T06:50:08.794Z,81.25
2019-01-12T06:52:39.855Z,81.28
2019-01-12T06:55:11.020Z,81.31
2019-01-12T06:57:42.375Z,80.77
2019-01-12T07:00:16.134Z,80.86
2019-01-12T07:02:47.289Z,81.04
2019-01-12T07:05:18.516Z,81.27
2019-01-12T07:07:49.820Z,81.16
2019-01-12T07:10:20.957Z,81.24
2019-01-12T07:12:52.080Z,81.28
2019-01-12T07:15:23.258Z,81.42
2019-01-12T07:17:54.257Z,81.64
2019-01-12T07:20:25.446Z,81.96
2019-01-12T07:22:56.458Z,82.10
2019-01-12T07:25:27.598Z,82.24
2019-01-12T07:27:58.665Z,82.59
2019-01-12T07:30:29.826Z,82.67
2019-01-12T07:33:01.013Z,82.78
2019-01-12T07:35:31.999Z,82.67
2019-01-12T07:38:03.085Z,82.82
2019-01-12T07:40:34.115Z,82.58
2019-01-12T07:43:05.347Z,82.24
2019-01-12T07:45:36.407Z,82.26
2019-01-12T07:48:07.562Z,82.00
2019-01-12T07:50:38.693Z,81.96
2019-01-12T07:53:10.863Z,82.01
2019-01-12T07:55:41.912Z,81.84
2019-01-12T07:58:13.021Z,81.65
2019-01-12T08:00:44.073Z,81.67
2019-01-12T08:03:15.314Z,81.69
2019-01-12T08:05:46.326Z,81.63
2019-01-12T08:08:17.521Z,81.83
2019-01-12T08:10:48.631Z,81.48
2019-01-12T08:13:20.993Z,81.84
2019-01-12T08:15:52.123Z,82.09
2019-01-12T08:18:23.207Z,82.02
2019-01-12T08:20:54.322Z,82.19
2019-01-12T08:23:25.490Z,82.27
2019-01-12T08:25:56.633Z,82.11
2019-01-12T08:28:28.775Z,82.12
2019-01-12T08:30:59.907Z,81.75
2019-01-12T08:33:30.987Z,81.77
2019-01-12T08:36:02.078Z,81.74
2019-01-12T08:38:33.159Z,81.85
2019-01-12T08:41:04.474Z,81.37
2019-01-12T08:43:35.562Z,80.72
2019-01-12T08:46:06.660Z,80.41
2019-01-12T08:48:38.010Z,80.75
2019-01-12T08:51:09.163Z,80.73
2019-01-12T08:53:40.241Z,80.45
2019-01-12T08:56:11.303Z,80.26
2019-01-12T08:58:42.377Z,80.14
2019-01-12T09:01:13.635Z,79.79
2019-01-12T09:03:44.800Z,80.26
2019-01-12T09:06:15.938Z,80.74
2019-01-12T09:08:46.974Z,81.38
2019-01-12T09:11:18.029Z,81.52
2019-01-12T09:13:49.293Z,81.47
2019-01-12T09:16:20.343Z,81.37
2019-01-12T09:18:51.443Z,81.01
2019-01-12T09:21:22.619Z,80.79
2019-01-12T09:23:53.676Z,80.62
2019-01-12T09:26:24.726Z,80.69
2019-01-12T09:28:55.810Z,80.71
2019-01-12T09:31:26.971Z,80.82
2019-01-12T09:33:58.039Z,80.28
2019-01-12T09:36:29.183Z,80.17
2019-01-12T09:39:00.337Z,79.62
2019-01-12T09:41:31.481Z,78.86
2019-01-12T09:44:02.575Z,78.83
2019-01-12T09:46:33.700Z,78.26
2019-01-12T09:49:04.824Z,78.61
2019-01-12T09:51:35.953Z,79.13
2019-01-12T09:54:07.146Z,79.50
2019-01-12T09:56:38.279Z,79.31
2019-01-12T09:59:09.463Z,79.16
2019-01-12T10:01:40.641Z,78.61
2019-01-12T10:04:11.780Z,78.96
2019-01-12T10:06:42.877Z,79.16
2019-01-12T10:09:13.960Z,79.19
2019-01-12T10:11:45.056Z,78.90
2019-01-12T10:14:16.236Z,78.45
2019-01-12T10:16:47.222Z,78.86
2019-01-12T10:19:18.302Z,79.39
2019-01-12T10:21:49.435Z,79.72
2019-01-12T10:24:20.606Z,79.60
2019-01-12T10:26:58.387Z,80.04
2019-01-12T10:29:24.638Z,80.00
2019-01-12T10:31:55.637Z,80.14
2019-01-12T10:34:26.727Z,79.60
2019-01-12T10:36:57.995Z,79.46
2019-01-12T10:39:29.308Z,79.38
2019-01-12T10:42:00.411Z,79.19
2019-01-12T10:44:31.582Z,79.08
2019-01-12T10:47:02.903Z,78.87
2019-01-12T10:49:34.061Z,78.93
2019-01-12T10:52:05.451Z,78.57
2019-01-12T10:54:36.519Z,78.31
2019-01-12T10:57:07.743Z,78.29
2019-01-12T10:59:38.944Z,78.23
2019-01-12T11:02:10.244Z,78.00
2019-01-12T11:04:41.465Z,77.56
2019-01-12T11:07:18.463Z,77.34
2019-01-12T11:09:49.614Z,76.63
2019-01-12T11:12:20.925Z,76.49
2019-01-12T11:14:52.012Z,76.75
2019-01-12T11:17:23.148Z,76.24
2019-01-12T11:19:54.148Z,76.65
2019-01-12T11:22:25.259Z,75.17
2019-01-12T11:24:56.697Z,73.66
2019-01-12T11:27:28.019Z,72.79
2019-01-12T11:29:59.035Z,72.61
2019-01-12T11:32:30.155Z,73.46
2019-01-12T11:35:01.169Z,74.42
2019-01-12T11:37:32.222Z,75.14
2019-01-12T11:40:04.082Z,75.87
2019-01-12T11:42:35.166Z,75.09
2019-01-12T11:45:07.116Z,73.67
2019-01-12T11:47:38.226Z,73.98
2019-01-12T11:50:11.851Z,73.62
2019-01-12T11:52:43.792Z,73.81
2019-01-12T11:55:16.588Z,71.53
2019-01-12T11:57:48.039Z,72.59
2019-01-12T12:00:24.381Z,73.03
2019-01-12T12:02:55.782Z,70.61
2019-01-12T12:05:27.064Z,71.18
2019-01-12T12:07:58.184Z,69.53
2019-01-12T12:10:29.632Z,70.57
2019-01-12T12:13:00.631Z,70.01
2019-01-12T12:15:31.947Z,72.15
2019-01-12T12:18:02.986Z,71.98
2019-01-12T12:20:34.053Z,72.41
2019-01-12T12:23:05.382Z,73.43
2019-01-12T12:25:36.544Z,72.76
2019-01-12T12:28:07.596Z,72.28
2019-01-12T12:30:38.740Z,72.84
2019-01-12T12:33:10.073Z,73.67
2019-01-12T12:35:41.208Z,73.48
2019-01-12T12:38:12.378Z,72.67
2019-01-12T12:40:44.608Z,72.05
2019-01-12T12:43:15.739Z,71.85
2019-01-12T12:45:46.831Z,71.61
2019-01-12T12:48:17.875Z,71.15
2019-01-12T12:50:49.020Z,71.44
2019-01-12T12:53:20.762Z,71.94
2019-01-12T12:55:51.918Z,71.04
2019-01-12T12:58:22.979Z,71.05
2019-01-12T13:00:54.156Z,70.69
2019-01-12T13:03:25.870Z,71.89
2019-01-12T13:05:57.026Z,71.69
2019-01-12T13:08:28.073Z,72.06
2019-01-12T13:10:59.686Z,71.85
2019-01-12T13:13:30.741Z,72.56
2019-01-12T13:16:01.895Z,73.04
2019-01-12T13:18:32.949Z,73.28
2019-01-12T13:21:04.100Z,72.90
2019-01-12T13:23:36.163Z,72.41
2019-01-12T13:26:07.308Z,72.91
2019-01-12T13:28:38.418Z,71.95
2019-01-12T13:31:09.630Z,71.76
2019-01-12T13:33:40.707Z,70.41
2019-01-12T13:36:11.846Z,70.14
2019-01-12T13:38:43.049Z,68.06
2019-01-12T13:41:14.126Z,68.47
2019-01-12T13:43:45.189Z,69.94
2019-01-12T13:46:16.320Z,70.52
2019-01-12T13:48:47.436Z,71.55
2019-01-12T13:51:18.496Z,72.35
2019-01-12T13:53:49.719Z,72.91
2019-01-12T13:56:22.391Z,73.67
2019-01-12T13:58:53.545Z,74.26
2019-01-12T14:01:24.674Z,74.04
2019-01-12T14:03:55.728Z,73.61
2019-01-12T14:06:26.943Z,73.27
2019-01-12T14:09:00.356Z,73.61
2019-01-12T14:11:31.492Z,73.72
2019-01-12T14:14:02.640Z,74.08
2019-01-12T14:16:33.809Z,74.40
2019-01-12T14:19:04.917Z,74.67
2019-01-12T14:21:36.160Z,74.59
2019-01-12T14:24:07.294Z,74.80
2019-01-12T14:26:38.441Z,74.13
2019-01-12T14:29:09.723Z,74.49
2019-01-12T14:31:41.052Z,74.67
2019-01-12T14:34:12.187Z,74.62
2019-01-12T14:36:43.300Z,74.60
2019-01-12T14:39:14.368Z,74.35
2019-01-12T14:41:45.531Z,74.57
2019-01-12T14:44:17.254Z,74.93
2019-01-12T14:46:48.433Z,75.18
2019-01-12T14:49:20.079Z,75.15
2019-01-12T14:51:51.227Z,74.79
2019-01-12T14:54:22.250Z,74.94
2019-01-12T14:56:53.262Z,74.75
2019-01-12T14:59:24.509Z,74.56
2019-01-12T15:01:55.598Z,74.22
2019-01-12T15:04:26.775Z,74.12
2019-01-12T15:06:57.868Z,74.89
2019-01-12T15:09:28.898Z,74.92
2019-01-12T15:11:59.886Z,75.13
2019-01-12T15:14:31.021Z,75.21
2019-01-12T15:17:02.104Z,75.57
2019-01-12T15:19:33.387Z,75.81
2019-01-12T15:22:04.558Z,75.96
2019-01-12T15:24:35.615Z,76.00
2019-01-12T15:27:06.754Z,76.20
2019-01-12T15:29:37.728Z,76.38
2019-01-12T15:32:08.899Z,76.28
2019-01-12T15:34:40.111Z,76.84
2019-01-12T15:37:11.168Z,76.41
2019-01-12T15:39:42.253Z,76.46
2019-01-12T15:42:13.333Z,76.50
2019-01-12T15:44:44.628Z,76.28
2019-01-12T15:47:15.801Z,76.09
2019-01-12T15:49:46.856Z,76.21
2019-01-12T15:52:17.954Z,75.88
2019-01-12T15:54:49.116Z,75.79
2019-01-12T15:57:20.157Z,75.48
2019-01-12T15:59:51.294Z,75.75
2019-01-12T16:02:22.482Z,75.55
2019-01-12T16:04:53.538Z,75.41
2019-01-12T16:07:24.727Z,75.68
2019-01-12T16:09:55.787Z,75.65
2019-01-12T16:12:26.955Z,75.98
2019-01-12T16:14:58.167Z,76.53
2019-01-12T16:17:29.261Z,76.41
2019-01-12T16:20:00.602Z,76.08
2019-01-12T16:22:31.724Z,76.07
2019-01-12T16:25:02.802Z,75.82
2019-01-12T16:27:33.886Z,75.93
2019-01-12T16:30:06.749Z,75.68
2019-01-12T16:32:37.757Z,75.43
2019-01-12T16:35:09.010Z,75.30
2019-01-12T16:37:40.214Z,74.96
2019-01-12T16:40:14.504Z,75.45
2019-01-12T16:42:45.705Z,75.06
2019-01-12T16:45:17.669Z,74.94
2019-01-12T16:47:49.231Z,75.30
2019-01-12T16:50:20.355Z,74.92
2019-01-12T16:52:51.510Z,74.89
2019-01-12T16:55:22.778Z,75.03
2019-01-12T16:57:54.093Z,74.87
2019-01-12T17:00:29.899Z,75.07
2019-01-12T17:03:01.673Z,74.75
2019-01-12T17:05:32.665Z,74.31
2019-01-12T17:08:04.042Z,74.42
2019-01-12T17:10:35.343Z,74.54
2019-01-12T17:13:06.746Z,74.14
2019-01-12T17:15:37.792Z,74.35
2019-01-12T17:18:08.927Z,73.56
2019-01-12T17:20:40.250Z,73.33
2019-01-12T17:23:11.336Z,73.25
2019-01-12T17:25:42.558Z,73.30
2019-01-12T17:28:13.650Z,72.52
2019-01-12T17:30:44.646Z,72.36
2019-01-12T17:33:15.692Z,71.86
2019-01-12T17:35:46.731Z,72.00
2019-01-12T17:38:17.839Z,71.87
2019-01-12T17:40:48.906Z,71.32
2019-01-12T17:43:20.039Z,71.63
2019-01-12T17:45:50.996Z,70.81
2019-01-12T17:48:22.369Z,71.19
2019-01-12T17:50:53.520Z,71.31
2019-01-12T17:53:24.591Z,71.08
2019-01-12T17:55:55.718Z,71.63
2019-01-12T17:58:26.731Z,70.77
2019-01-12T18:00:57.819Z,70.59
2019-01-12T18:03:29.037Z,70.55
2019-01-12T18:06:00.210Z,70.10
2019-01-12T18:08:31.432Z,69.83
2019-01-12T18:11:02.530Z,70.03
2019-01-12T18:13:33.676Z,69.95
2019-01-12T18:16:04.814Z,70.25
2019-01-12T18:18:35.969Z,70.48
2019-01-12T18:21:07.225Z,70.91
2019-01-12T18:23:38.288Z,71.63
2019-01-12T18:26:09.435Z,71.89
2019-01-12T18:28:40.645Z,72.37
2019-01-12T18:31:11.758Z,73.24
2019-01-12T18:33:42.802Z,73.75
2019-01-12T18:36:13.904Z,74.68
2019-01-12T18:38:44.975Z,75.29
2019-01-12T18:41:16.096Z,75.36
2019-01-12T18:43:47.180Z,76.10
2019-01-12T18:46:18.173Z,77.19
2019-01-12T18:48:49.299Z,77.96
2019-01-12T18:51:20.393Z,78.53
2019-01-12T18:53:51.494Z,79.28
2019-01-12T18:56:23.945Z,79.93
2019-01-12T18:58:59.006Z,80.54
2019-01-12T19:01:27.871Z,80.81
2019-01-12T19:03:59.227Z,81.42
2019-01-12T19:06:30.265Z,81.70
2019-01-12T19:09:01.274Z,81.92
2019-01-12T19:11:32.520Z,82.46
2019-01-12T19:14:03.664Z,82.51
2019-01-12T19:16:34.893Z,82.66
2019-01-12T19:19:06.035Z,82.54
2019-01-12T19:21:37.365Z,82.72
2019-01-12T19:24:08.699Z,82.87
2019-01-12T19:26:39.678Z,82.46
2019-01-12T19:29:10.771Z,82.54
2019-01-12T19:31:43.030Z,82.48
2019-01-12T19:34:14.076Z,82.59
2019-01-12T19:36:45.821Z,82.37
2019-01-12T19:39:16.962Z,82.37
2019-01-12T19:41:48.022Z,82.72
2019-01-12T19:44:19.015Z,83.13
2019-01-12T19:46:50.120Z,83.45
2019-01-12T19:49:22.302Z,83.74
2019-01-12T19:51:53.379Z,83.68
2019-01-12T19:54:24.493Z,83.77
2019-01-12T19:56:55.661Z,83.94
2019-01-12T19:59:26.827Z,84.08
2019-01-12T20:01:57.915Z,84.25
2019-01-12T20:04:29.150Z,84.37
2019-01-12T20:07:00.540Z,84.54
2019-01-12T20:09:31.622Z,84.80
2019-01-12T20:12:02.699Z,85.07
2019-01-12T20:14:33.779Z,85.30
2019-01-12T20:17:05.088Z,85.31
2019-01-12T20:19:36.287Z,85.35
2019-01-12T20:22:07.621Z,85.66
2019-01-12T20:24:38.705Z,85.76
2019-01-12T20:27:09.840Z,85.77
2019-01-12T20:29:40.892Z,85.60
2019-01-12T20:33:14.251Z,85.68
2019-01-12T20:36:28.364Z,85.58
2019-01-12T20:39:28.419Z,85.67
2019-01-12T20:42:26.031Z,85.85
2019-01-12T20:45:18.436Z,85.71
2019-01-12T20:48:15.226Z,85.53
2019-01-12T20:51:37.700Z,85.53
2019-01-12T20:54:25.767Z,85.43
2019-01-12T20:57:16.695Z,85.51
2019-01-12T21:00:31.558Z,85.57
2019-01-12T21:03:44.055Z,85.72
2019-01-12T21:06:47.355Z,85.85
2019-01-12T21:09:48.914Z,85.82
2019-01-12T21:12:48.888Z,85.63
2019-01-12T21:15:35.127Z,85.29
2019-01-12T21:18:06.331Z,85.17
2019-01-12T21:20:37.391Z,84.91
2019-01-12T21:23:08.668Z,84.98
2019-01-12T21:25:39.777Z,84.73
2019-01-12T21:28:10.855Z,84.78
2019-01-12T21:30:41.895Z,85.05
2019-01-12T21:33:12.961Z,85.27
2019-01-12T21:35:44.314Z,85.50
2019-01-12T21:38:15.347Z,85.57
2019-01-12T21:40:46.604Z,85.30
2019-01-12T21:43:17.753Z,85.26
2019-01-12T21:45:49.948Z,85.33
2019-01-12T21:48:21.162Z,85.32
2019-01-12T21:50:52.307Z,85.22
2019-01-12T21:53:23.455Z,85.36
2019-01-12T21:55:54.642Z,85.41
2019-01-12T21:58:25.639Z,85.50
2019-01-12T22:00:56.696Z,85.53
2019-01-12T22:03:27.860Z,85.40
2019-01-12T22:05:59.110Z,85.56
2019-01-12T22:08:30.291Z,85.69
2019-01-12T22:11:01.432Z,85.67
2019-01-12T22:13:32.611Z,85.77
2019-01-12T22:16:03.661Z,85.84
2019-01-12T22:18:34.831Z,85.92
2019-01-12T22:21:05.884Z,86.23
2019-01-12T22:23:36.990Z,86.37
2019-01-12T22:26:08.059Z,86.48
2019-01-12T22:28:39.072Z,86.60
2019-01-12T22:31:10.150Z,86.56
2019-01-12T22:33:41.289Z,86.58
2019-01-12T22:36:12.425Z,86.52
2019-01-12T22:38:43.597Z,86.56
2019-01-12T22:41:14.904Z,86.50
2019-01-12T22:43:46.220Z,86.34
2019-01-12T22:46:17.268Z,86.08
2019-01-12T22:48:48.330Z,85.91
2019-01-12T22:51:19.342Z,85.91
2019-01-12T22:53:50.425Z,85.89
2019-01-12T22:56:21.569Z,85.93
2019-01-12T22:58:54.359Z,86.19
2019-01-12T23:01:54.966Z,85.92
2019-01-12T23:04:28.625Z,85.99
2019-01-12T23:06:59.963Z,85.85
2019-01-12T23:09:31.371Z,85.56
2019-01-12T23:12:02.508Z,85.58
2019-01-12T23:14:33.690Z,85.70
2019-01-12T23:17:05.118Z,85.66
2019-01-12T23:19:37.320Z,85.81
2019-01-12T23:22:08.730Z,85.85
2019-01-12T23:24:39.852Z,85.65
2019-01-12T23:27:10.990Z,85.52
2019-01-12T23:29:42.109Z,85.49
2019-01-12T23:32:13.147Z,85.05
2019-01-12T23:34:44.552Z,84.85
2019-01-12T23:37:15.654Z,84.73
2019-01-12T23:39:46.734Z,84.79
2019-01-12T23:42:17.957Z,84.81
2019-01-12T23:44:48.966Z,85.06
2019-01-12T23:47:20.023Z,85.19
2019-01-12T23:49:51.101Z,85.05
2019-01-12T23:52:22.142Z,85.01
2019-01-12T23:54:53.280Z,85.01
2019-01-12T23:57:24.428Z,85.09
2019-01-12T23:59:55.501Z,85.21
